createdAt,value
2022-10-11T00:01:51.696Z,9.70
2022-10-11T00:04:18.095Z,33.70
2022-10-11T00:06:44.389Z,8.18
2022-10-11T00:09:11.647Z,7.35
2022-10-11T00:11:38.340Z,4.70
2022-10-11T00:14:05.514Z,11.02
2022-10-11T00:16:31.974Z,11.25
2022-10-11T00:18:58.319Z,7.05
2022-10-11T00:21:24.632Z,7.35
2022-10-11T00:23:51.966Z,7.95
2022-10-11T00:26:18.282Z,10.75
2022-10-11T00:28:44.591Z,18.48
2022-10-11T00:31:13.311Z,11.38
2022-10-11T00:33:39.571Z,10.63
2022-10-11T00:36:07.004Z,8.27
2022-10-11T00:38:34.219Z,7.10
2022-10-11T00:41:00.889Z,11.77
2022-10-11T00:43:29.353Z,6.10
2022-10-11T00:45:55.620Z,7.70
2022-10-11T00:48:24.056Z,8.43
2022-10-11T00:50:50.531Z,5.32
2022-10-11T00:53:16.768Z,8.52
2022-10-11T00:55:55.573Z,7.45
2022-10-11T00:58:22.653Z,10.35
2022-10-11T01:00:49.107Z,9.82
2022-10-11T01:03:17.026Z,8.93
2022-10-11T01:05:44.079Z,8.93
2022-10-11T01:08:10.501Z,7.13
2022-10-11T01:10:36.847Z,9.40
2022-10-11T01:13:15.307Z,9.63
2022-10-11T01:15:51.144Z,8.32
2022-10-11T01:18:36.446Z,6.90
2022-10-11T01:21:05.732Z,8.38
2022-10-11T01:23:55.545Z,8.43
2022-10-11T01:26:34.271Z,4.15
2022-10-11T01:29:03.525Z,4.05
2022-10-11T01:31:43.042Z,6.55
2022-10-11T01:34:15.085Z,12.82
2022-10-11T01:36:47.220Z,6.88
2022-10-11T01:39:16.916Z,9.95
2022-10-11T01:41:46.334Z,8.85
2022-10-11T01:44:13.434Z,8.13
2022-10-11T01:46:40.872Z,13.88
2022-10-11T01:49:07.600Z,9.18
2022-10-11T01:51:47.558Z,12.10
2022-10-11T01:54:17.020Z,6.15
2022-10-11T01:56:50.212Z,14.23
2022-10-11T01:59:16.564Z,8.90
2022-10-11T02:01:42.816Z,6.65
2022-10-11T02:04:12.202Z,5.57
2022-10-11T02:06:48.624Z,9.77
2022-10-11T02:09:21.293Z,9.60
2022-10-11T02:11:47.616Z,7.25
2022-10-11T02:14:20.067Z,7.82
2022-10-11T02:16:49.210Z,12.18
2022-10-11T02:19:18.719Z,7.07
2022-10-11T02:21:47.300Z,7.32
2022-10-11T02:24:16.966Z,6.57
2022-10-11T02:26:46.079Z,7.13
2022-10-11T02:29:15.095Z,15.75
2022-10-11T02:31:41.917Z,5.70
2022-10-11T02:34:08.165Z,8.52
2022-10-11T02:36:40.774Z,6.95
2022-10-11T02:39:11.380Z,6.63
2022-10-11T02:41:39.340Z,8.90
2022-10-11T02:44:26.787Z,10.05
2022-10-11T02:46:53.352Z,8.45
2022-10-11T02:49:20.058Z,7.45
2022-10-11T02:51:46.337Z,8.43
2022-10-11T02:54:12.604Z,13.95
2022-10-11T02:56:38.850Z,7.15
2022-10-11T02:59:05.099Z,6.03
2022-10-11T03:01:31.454Z,5.45
2022-10-11T03:03:58.287Z,4.95
2022-10-11T03:06:24.578Z,4.93
2022-10-11T03:08:51.116Z,15.23
2022-10-11T03:11:17.435Z,10.80
2022-10-11T03:13:43.756Z,5.68
2022-10-11T03:16:10.486Z,10.63
2022-10-11T03:18:37.003Z,8.45
2022-10-11T03:21:03.624Z,6.32
2022-10-11T03:23:29.970Z,14.40
2022-10-11T03:25:56.342Z,7.88
2022-10-11T03:28:22.682Z,5.80
2022-10-11T03:30:50.089Z,8.15
2022-10-11T03:33:17.128Z,5.03
2022-10-11T03:35:46.950Z,7.38
2022-10-11T03:38:14.144Z,10.93
2022-10-11T03:40:41.113Z,7.88
2022-10-11T03:43:07.407Z,9.55
2022-10-11T03:45:33.681Z,7.90
2022-10-11T03:48:00.034Z,7.78
2022-10-11T03:50:26.314Z,6.85
2022-10-11T03:52:52.641Z,6.53
2022-10-11T03:55:18.910Z,9.45
2022-10-11T03:57:45.132Z,8.60
2022-10-11T04:00:11.537Z,6.88
2022-10-11T04:02:39.340Z,6.70
2022-10-11T04:05:06.440Z,7.55
2022-10-11T04:07:33.235Z,3.55
2022-10-11T04:09:59.683Z,10.48
2022-10-11T04:12:25.937Z,5.35
2022-10-11T04:14:52.183Z,7.43
2022-10-11T04:17:18.440Z,6.68
2022-10-11T04:19:44.684Z,8.50
2022-10-11T04:22:10.974Z,6.95
2022-10-11T04:24:37.224Z,10.38
2022-10-11T04:27:03.489Z,5.68
2022-10-11T04:29:32.557Z,5.75
2022-10-11T04:31:59.168Z,7.55
2022-10-11T04:34:25.477Z,4.82
2022-10-11T04:36:51.698Z,7.03
2022-10-11T04:39:18.003Z,8.93
2022-10-11T04:41:44.265Z,5.50
2022-10-11T04:44:10.505Z,6.10
2022-10-11T04:46:36.777Z,9.85
2022-10-11T04:49:03.513Z,3.80
2022-10-11T04:51:30.320Z,8.02
2022-10-11T04:53:56.742Z,4.82
2022-10-11T04:56:23.018Z,9.93
2022-10-11T04:58:49.524Z,5.40
2022-10-11T05:01:16.018Z,6.47
2022-10-11T05:03:43.301Z,10.07
2022-10-11T05:06:10.002Z,8.82
2022-10-11T05:08:36.431Z,11.07
2022-10-11T05:11:04.622Z,7.32
2022-10-11T05:13:31.370Z,6.95
2022-10-11T05:15:57.897Z,6.18
2022-10-11T05:18:24.570Z,4.30
2022-10-11T05:21:00.271Z,7.13
2022-10-11T05:23:27.378Z,9.00
2022-10-11T05:25:53.959Z,9.65
2022-10-11T05:28:20.387Z,8.32
2022-10-11T05:30:46.731Z,9.20
2022-10-11T05:33:13.017Z,6.53
2022-10-11T05:35:39.287Z,6.10
2022-10-11T05:38:05.637Z,9.25
2022-10-11T05:40:33.293Z,11.20
2022-10-11T05:42:59.571Z,10.32
2022-10-11T05:45:25.945Z,5.00
2022-10-11T05:47:52.177Z,7.15
2022-10-11T05:50:22.046Z,10.07
2022-10-11T05:52:50.543Z,4.53
2022-10-11T05:55:16.939Z,8.00
2022-10-11T05:57:44.281Z,6.07
2022-10-11T06:00:11.019Z,13.13
2022-10-11T06:02:37.268Z,12.32
2022-10-11T06:05:03.653Z,6.43
2022-10-11T06:07:29.998Z,4.85
2022-10-11T06:09:56.447Z,6.22
2022-10-11T06:12:22.748Z,14.10
2022-10-11T06:14:49.056Z,8.82
2022-10-11T06:17:15.328Z,9.07
2022-10-11T06:19:41.599Z,11.38
2022-10-11T06:22:10.226Z,10.60
2022-10-11T06:24:36.476Z,9.98
2022-10-11T06:27:02.779Z,8.70
2022-10-11T06:29:29.086Z,11.00
2022-10-11T06:31:55.417Z,10.68
2022-10-11T06:34:21.706Z,10.00
2022-10-11T06:36:47.974Z,13.88
2022-10-11T06:39:14.233Z,8.98
2022-10-11T06:41:40.539Z,10.73
2022-10-11T06:44:10.735Z,11.05
2022-10-11T06:46:39.795Z,14.88
2022-10-11T06:49:06.265Z,6.20
2022-10-11T06:51:32.727Z,6.38
2022-10-11T06:53:59.836Z,7.35
2022-10-11T06:56:26.740Z,9.30
2022-10-11T06:58:53.718Z,7.40
2022-10-11T07:01:21.458Z,9.55
2022-10-11T07:03:48.050Z,7.68
2022-10-11T07:06:15.406Z,9.48
2022-10-11T07:08:41.925Z,11.80
2022-10-11T07:11:11.446Z,9.80
2022-10-11T07:13:38.254Z,12.90
2022-10-11T07:16:05.727Z,10.13
2022-10-11T07:18:32.238Z,9.98
2022-10-11T07:21:06.073Z,12.65
2022-10-11T07:23:32.721Z,12.40
2022-10-11T07:25:59.056Z,8.32
2022-10-11T07:28:25.872Z,7.53
2022-10-11T07:30:52.294Z,9.23
2022-10-11T07:33:18.667Z,10.63
2022-10-11T07:35:48.371Z,15.27
2022-10-11T07:38:15.251Z,11.75
2022-10-11T07:40:45.399Z,13.27
2022-10-11T07:43:12.319Z,11.07
2022-10-11T07:45:39.402Z,9.45
2022-10-11T07:48:06.074Z,10.75
2022-10-11T07:50:32.874Z,9.60
2022-10-11T07:52:59.295Z,13.98
2022-10-11T07:55:27.583Z,8.68
2022-10-11T07:57:57.519Z,8.80
2022-10-11T08:00:24.242Z,12.82
2022-10-11T08:02:50.589Z,12.85
2022-10-11T08:05:17.098Z,11.75
2022-10-11T08:07:43.416Z,9.43
2022-10-11T08:10:10.100Z,10.23
2022-10-11T08:12:36.427Z,9.38
2022-10-11T08:15:02.715Z,7.63
2022-10-11T08:17:29.665Z,13.88
2022-10-11T08:19:58.471Z,15.70
2022-10-11T08:22:24.765Z,8.90
2022-10-11T08:24:51.366Z,13.23
2022-10-11T08:27:17.728Z,9.35
2022-10-11T08:29:44.017Z,9.88
2022-10-11T08:32:12.322Z,12.00
2022-10-11T08:34:38.727Z,10.05
2022-10-11T08:37:05.202Z,8.02
2022-10-11T08:39:31.506Z,6.47
2022-10-11T08:42:00.767Z,7.53
2022-10-11T08:44:51.801Z,12.23
2022-10-11T08:47:30.592Z,9.10
2022-10-11T08:49:57.932Z,9.80
2022-10-11T08:52:28.678Z,15.35
2022-10-11T08:54:56.230Z,8.18
2022-10-11T08:57:24.687Z,16.52
2022-10-11T08:59:53.827Z,10.50
2022-10-11T09:02:43.627Z,8.00
2022-10-11T09:05:15.255Z,7.95
2022-10-11T09:08:10.095Z,8.77
2022-10-11T09:10:51.693Z,10.98
2022-10-11T09:13:34.743Z,8.57
2022-10-11T09:16:13.751Z,5.20
2022-10-11T09:18:47.109Z,7.65
2022-10-11T09:21:16.468Z,9.85
2022-10-11T09:24:01.985Z,4.88
2022-10-11T09:26:30.573Z,8.20
2022-10-11T09:29:01.595Z,8.38
2022-10-11T09:31:28.761Z,12.68
2022-10-11T09:33:55.707Z,8.88
2022-10-11T09:36:40.500Z,7.32
2022-10-11T09:39:13.362Z,6.63
2022-10-11T09:41:49.156Z,5.45
2022-10-11T09:44:22.745Z,9.98
2022-10-11T09:46:49.447Z,14.75
2022-10-11T09:49:16.764Z,10.50
2022-10-11T09:51:45.004Z,6.53
2022-10-11T09:54:11.319Z,7.03
2022-10-11T09:56:41.991Z,11.02
2022-10-11T09:59:09.835Z,8.52
2022-10-11T10:01:36.628Z,5.25
2022-10-11T10:04:04.852Z,7.50
2022-10-11T10:06:31.143Z,7.53
2022-10-11T10:09:17.643Z,12.05
2022-10-11T10:11:44.011Z,10.13
2022-10-11T10:14:18.014Z,13.48
2022-10-11T10:16:44.374Z,7.72
2022-10-11T10:19:18.446Z,5.30
2022-10-11T10:21:46.544Z,7.13
2022-10-11T10:24:29.310Z,6.15
2022-10-11T10:27:07.094Z,8.75
2022-10-11T10:29:33.559Z,7.30
2022-10-11T10:32:13.834Z,6.07
2022-10-11T10:35:01.082Z,6.75
2022-10-11T10:37:31.825Z,9.32
2022-10-11T10:40:01.839Z,10.90
2022-10-11T10:42:28.736Z,9.18
2022-10-11T10:44:56.947Z,10.80
2022-10-11T10:47:38.658Z,7.13
2022-10-11T10:50:16.905Z,6.65
2022-10-11T10:52:56.932Z,7.05
2022-10-11T10:55:38.727Z,13.18
2022-10-11T10:58:23.728Z,5.25
2022-10-11T11:00:51.298Z,8.87
2022-10-11T11:03:26.333Z,11.80
2022-10-11T11:05:55.352Z,6.47
2022-10-11T11:08:38.599Z,3.92
2022-10-11T11:11:04.882Z,8.77
2022-10-11T11:13:37.021Z,12.75
2022-10-11T11:16:03.641Z,7.40
2022-10-11T11:18:36.261Z,7.38
2022-10-11T11:21:21.453Z,7.57
2022-10-11T11:23:59.251Z,4.53
2022-10-11T11:26:28.714Z,11.52
2022-10-11T11:29:10.307Z,12.35
2022-10-11T11:31:42.571Z,12.52
2022-10-11T11:34:16.322Z,6.75
2022-10-11T11:36:47.498Z,8.05
2022-10-11T11:39:29.568Z,8.90
2022-10-11T11:42:05.528Z,8.27
2022-10-11T11:44:34.386Z,6.93
2022-10-11T11:47:03.093Z,8.68
2022-10-11T11:49:32.552Z,7.03
2022-10-11T11:51:59.187Z,4.95
2022-10-11T11:54:25.520Z,8.55
2022-10-11T11:56:56.846Z,9.57
2022-10-11T11:59:23.122Z,4.57
2022-10-11T12:01:57.841Z,9.20
2022-10-11T12:04:33.157Z,6.80
2022-10-11T12:07:22.142Z,9.45
2022-10-11T12:09:50.685Z,6.25
2022-10-11T12:12:34.519Z,5.13
2022-10-11T12:15:10.107Z,8.55
2022-10-11T12:17:55.751Z,6.40
2022-10-11T12:20:26.284Z,14.82
2022-10-11T12:22:54.239Z,9.63
2022-10-11T12:25:33.047Z,9.60
2022-10-11T12:28:19.299Z,14.90
2022-10-11T12:30:50.678Z,10.35
2022-10-11T12:33:16.932Z,7.93
2022-10-11T12:35:55.572Z,10.90
2022-10-11T12:38:28.794Z,8.52
2022-10-11T12:40:57.892Z,12.38
2022-10-11T12:43:26.219Z,6.47
2022-10-11T12:45:52.524Z,8.85
2022-10-11T12:48:41.331Z,5.15
2022-10-11T12:51:22.554Z,6.10
2022-10-11T12:54:25.491Z,7.10
2022-10-11T12:56:57.814Z,6.38
2022-10-11T12:59:24.507Z,9.13
2022-10-11T13:01:54.832Z,9.52
2022-10-11T13:04:24.057Z,10.65
2022-10-11T13:06:53.567Z,7.80
2022-10-11T13:09:27.801Z,8.25
2022-10-11T13:12:13.130Z,8.48
2022-10-11T13:14:43.106Z,5.88
2022-10-11T13:17:21.909Z,5.18
2022-10-11T13:19:51.577Z,5.50
2022-10-11T13:22:19.398Z,5.45
2022-10-11T13:24:45.755Z,8.77
2022-10-11T13:27:16.746Z,8.88
2022-10-11T13:29:44.898Z,7.57
2022-10-11T13:32:13.270Z,12.90
2022-10-11T13:34:40.805Z,5.50
2022-10-11T13:37:07.495Z,8.60
2022-10-11T13:39:38.126Z,11.05
2022-10-11T13:42:12.752Z,12.13
2022-10-11T13:44:39.466Z,5.57
2022-10-11T13:47:06.073Z,7.07
2022-10-11T13:49:40.199Z,6.13
2022-10-11T13:52:20.318Z,8.40
2022-10-11T13:54:52.715Z,10.30
2022-10-11T13:57:20.141Z,11.23
2022-10-11T13:59:46.711Z,8.63
2022-10-11T14:02:17.480Z,14.52
2022-10-11T14:04:43.848Z,8.30
2022-10-11T14:07:26.077Z,15.05
2022-10-11T14:09:53.221Z,8.45
2022-10-11T14:12:25.678Z,7.80
2022-10-11T14:14:53.690Z,6.78
2022-10-11T14:17:32.502Z,8.90
2022-10-11T14:20:11.699Z,9.75
2022-10-11T14:22:38.222Z,10.80
2022-10-11T14:25:04.998Z,9.68
2022-10-11T14:27:31.316Z,8.85
2022-10-11T14:30:23.974Z,10.73
2022-10-11T14:32:44.474Z,6.13
2022-10-11T14:35:18.174Z,9.60
2022-10-11T14:37:44.739Z,5.97
2022-10-11T14:40:16.366Z,9.98
2022-10-11T14:42:42.599Z,11.88
2022-10-11T14:45:08.966Z,9.95
2022-10-11T14:47:40.541Z,9.38
2022-10-11T14:50:21.343Z,5.75
2022-10-11T14:52:47.605Z,9.20
2022-10-11T14:55:13.889Z,9.98
2022-10-11T14:57:40.198Z,9.55
2022-10-11T15:00:14.868Z,6.25
2022-10-11T15:02:41.176Z,6.70
2022-10-11T15:05:07.584Z,6.78
2022-10-11T15:07:33.847Z,5.90
2022-10-11T15:10:00.159Z,8.90
2022-10-11T15:12:26.657Z,5.22
2022-10-11T15:14:52.983Z,14.00
2022-10-11T15:17:19.778Z,5.93
2022-10-11T15:19:46.034Z,6.40
2022-10-11T15:22:12.272Z,13.88
2022-10-11T15:24:38.637Z,9.43
2022-10-11T15:27:04.971Z,12.85
2022-10-11T15:29:31.277Z,6.10
2022-10-11T15:31:57.811Z,7.05
2022-10-11T15:34:24.113Z,8.77
2022-10-11T15:36:51.179Z,5.88
2022-10-11T15:39:24.086Z,8.05
2022-10-11T15:41:50.801Z,8.80
2022-10-11T15:44:17.056Z,7.50
2022-10-11T15:46:43.779Z,6.65
2022-10-11T15:49:13.481Z,9.50
2022-10-11T15:51:40.023Z,9.75
2022-10-11T15:54:06.476Z,10.27
2022-10-11T15:56:33.887Z,7.20
2022-10-11T15:59:00.390Z,7.50
2022-10-11T16:01:27.405Z,6.68
2022-10-11T16:03:53.672Z,6.95
2022-10-11T16:06:19.934Z,11.55
2022-10-11T16:08:46.189Z,8.30
2022-10-11T16:11:12.774Z,7.90
2022-10-11T16:13:39.387Z,9.18
2022-10-11T16:16:06.604Z,6.10
2022-10-11T16:18:35.639Z,7.13
2022-10-11T16:21:05.312Z,8.40
2022-10-11T16:23:31.680Z,9.73
2022-10-11T16:25:59.218Z,5.65
2022-10-11T16:28:25.932Z,5.32
2022-10-11T16:30:52.480Z,7.70
2022-10-11T16:33:18.886Z,15.30
2022-10-11T16:35:45.290Z,6.90
2022-10-11T16:38:11.654Z,7.95
2022-10-11T16:40:38.859Z,4.15
2022-10-11T16:43:07.957Z,10.18
2022-10-11T16:45:34.873Z,13.02
2022-10-11T16:48:01.402Z,9.23
2022-10-11T16:50:29.033Z,11.63
2022-10-11T16:52:55.585Z,7.75
2022-10-11T16:55:22.707Z,14.43
2022-10-11T16:57:48.985Z,10.38
2022-10-11T17:00:15.395Z,6.93
2022-10-11T17:02:41.623Z,7.65
2022-10-11T17:05:07.935Z,11.45
2022-10-11T17:07:34.329Z,16.92
2022-10-11T17:10:01.145Z,7.57
2022-10-11T17:12:28.040Z,8.23
2022-10-11T17:14:54.587Z,8.50
2022-10-11T17:17:20.930Z,8.52
2022-10-11T17:19:47.629Z,11.15
2022-10-11T17:22:15.563Z,9.13
2022-10-11T17:24:41.839Z,11.75
2022-10-11T17:27:08.374Z,8.57
2022-10-11T17:29:34.673Z,10.18
2022-10-11T17:32:01.036Z,11.40
2022-10-11T17:34:28.009Z,10.68
2022-10-11T17:36:54.275Z,12.55
2022-10-11T17:39:22.242Z,13.88
2022-10-11T17:41:48.833Z,10.88
2022-10-11T17:44:17.360Z,13.32
2022-10-11T17:46:43.683Z,11.75
2022-10-11T17:49:11.096Z,12.10
2022-10-11T17:51:37.814Z,12.68
2022-10-11T17:54:04.300Z,8.48
2022-10-11T17:56:36.573Z,8.20
2022-10-11T17:59:03.967Z,12.25
2022-10-11T18:01:30.380Z,13.48
2022-10-11T18:03:58.071Z,11.45
2022-10-11T18:06:28.862Z,6.50
2022-10-11T18:08:55.828Z,15.50
2022-10-11T18:11:23.627Z,11.80
2022-10-11T18:13:51.043Z,10.88
2022-10-11T18:16:18.434Z,14.50
2022-10-11T18:18:44.964Z,12.43
2022-10-11T18:21:11.448Z,13.23
2022-10-11T18:23:38.272Z,19.50
2022-10-11T18:26:11.770Z,13.82
2022-10-11T18:28:38.158Z,15.63
2022-10-11T18:31:12.523Z,10.85
2022-10-11T18:33:39.400Z,17.33
2022-10-11T18:36:06.933Z,16.05
2022-10-11T18:38:33.865Z,13.13
2022-10-11T18:41:07.353Z,13.77
2022-10-11T18:43:33.986Z,14.20
2022-10-11T18:46:07.456Z,21.33
2022-10-11T18:48:33.976Z,15.10
2022-10-11T18:51:09.885Z,12.82
2022-10-11T18:53:36.729Z,15.93
2022-10-11T18:56:04.068Z,15.13
2022-10-11T18:58:31.247Z,11.02
2022-10-11T19:01:23.920Z,16.15
2022-10-11T19:03:52.576Z,15.75
2022-10-11T19:06:20.728Z,15.30
2022-10-11T19:08:51.411Z,12.65
2022-10-11T19:11:21.488Z,17.08
2022-10-11T19:13:48.281Z,14.23
2022-10-11T19:16:16.078Z,13.90
2022-10-11T19:18:44.393Z,16.60
2022-10-11T19:21:11.867Z,15.10
2022-10-11T19:23:40.133Z,17.98
2022-10-11T19:26:07.280Z,16.95
2022-10-11T19:28:34.145Z,42.42
2022-10-11T19:31:01.543Z,26.38
2022-10-11T19:33:28.040Z,18.10
2022-10-11T19:35:58.254Z,18.95
2022-10-11T19:38:24.798Z,19.55
2022-10-11T19:40:51.297Z,17.70
2022-10-11T19:43:17.596Z,21.33
2022-10-11T19:45:44.007Z,14.55
2022-10-11T19:48:11.267Z,16.55
2022-10-11T19:50:37.853Z,16.33
2022-10-11T19:53:04.485Z,15.02
2022-10-11T19:55:30.952Z,20.08
2022-10-11T19:57:57.202Z,21.17
2022-10-11T20:00:23.513Z,14.90
2022-10-11T20:02:49.962Z,15.68
2022-10-11T20:05:17.368Z,20.63
2022-10-11T20:07:43.671Z,20.20
2022-10-11T20:10:09.905Z,15.98
2022-10-11T20:12:36.411Z,14.77
2022-10-11T20:15:02.710Z,20.02
2022-10-11T20:17:48.113Z,21.50
2022-10-11T20:20:15.002Z,17.13
2022-10-11T20:22:41.337Z,18.15
2022-10-11T20:25:07.836Z,20.60
2022-10-11T20:27:34.431Z,21.42
2022-10-11T20:30:00.872Z,21.67
2022-10-11T20:32:28.091Z,20.73
2022-10-11T20:34:54.364Z,23.08
2022-10-11T20:37:20.956Z,20.77
2022-10-11T20:39:47.219Z,20.30
2022-10-11T20:42:15.205Z,20.95
2022-10-11T20:44:43.575Z,20.33
2022-10-11T20:47:09.873Z,23.48
2022-10-11T20:49:36.140Z,23.85
2022-10-11T20:52:02.484Z,22.08
2022-10-11T20:54:29.814Z,21.73
2022-10-11T20:56:57.925Z,22.10
2022-10-11T20:59:24.255Z,20.55
2022-10-11T21:01:51.047Z,25.02
2022-10-11T21:04:20.026Z,21.02
2022-10-11T21:06:47.520Z,16.05
2022-10-11T21:09:16.352Z,20.88
2022-10-11T21:11:43.225Z,19.08
2022-10-11T21:14:09.448Z,17.77
2022-10-11T21:16:35.712Z,19.48
2022-10-11T21:19:02.291Z,20.13
2022-10-11T21:21:29.282Z,22.88
2022-10-11T21:23:56.286Z,18.77
2022-10-11T21:26:22.823Z,24.25
2022-10-11T21:28:49.347Z,22.48
2022-10-11T21:31:18.166Z,18.83
2022-10-11T21:33:44.471Z,25.50
2022-10-11T21:36:12.420Z,21.52
2022-10-11T21:38:38.879Z,16.88
2022-10-11T21:41:06.505Z,20.65
2022-10-11T21:43:33.429Z,16.58
2022-10-11T21:45:59.697Z,19.42
2022-10-11T21:48:25.996Z,18.90
2022-10-11T21:50:53.164Z,19.83
2022-10-11T21:53:19.888Z,24.33
2022-10-11T21:55:46.547Z,21.08
2022-10-11T21:58:13.188Z,18.23
2022-10-11T22:00:39.508Z,20.35
2022-10-11T22:03:05.754Z,18.33
2022-10-11T22:05:32.100Z,20.52
2022-10-11T22:07:58.399Z,21.27
2022-10-11T22:10:24.684Z,23.20
2022-10-11T22:12:51.087Z,22.23
2022-10-11T22:15:17.372Z,18.23
2022-10-11T22:17:43.618Z,20.40
2022-10-11T22:20:09.972Z,21.92
2022-10-11T22:22:36.549Z,15.60
2022-10-11T22:25:03.246Z,19.85
2022-10-11T22:27:29.573Z,21.23
2022-10-11T22:29:56.055Z,18.95
2022-10-11T22:32:22.291Z,23.35
2022-10-11T22:34:48.544Z,18.48
2022-10-11T22:37:14.900Z,19.55
2022-10-11T22:39:41.123Z,20.35
2022-10-11T22:42:07.351Z,24.50
2022-10-11T22:44:33.612Z,21.00
2022-10-11T22:46:59.955Z,18.05
2022-10-11T22:49:26.187Z,26.48
2022-10-11T22:51:52.721Z,22.27
2022-10-11T22:54:18.972Z,23.05
2022-10-11T22:56:45.225Z,23.55
2022-10-11T22:59:11.550Z,16.23
2022-10-11T23:01:37.785Z,15.80
2022-10-11T23:04:04.173Z,21.30
2022-10-11T23:06:30.548Z,21.50
2022-10-11T23:08:57.065Z,19.05
2022-10-11T23:11:23.321Z,18.77
2022-10-11T23:13:50.088Z,20.90
2022-10-11T23:16:16.482Z,15.75
2022-10-11T23:18:42.729Z,18.75
2022-10-11T23:21:08.984Z,19.75
2022-10-11T23:23:35.386Z,22.98
2022-10-11T23:26:10.246Z,15.88
2022-10-11T23:28:36.848Z,21.80
2022-10-11T23:31:07.254Z,19.08
2022-10-11T23:33:33.588Z,19.25
2022-10-11T23:35:59.843Z,24.60
2022-10-11T23:38:26.126Z,30.75
2022-10-11T23:40:52.526Z,20.98
2022-10-11T23:43:18.742Z,18.08
2022-10-11T23:45:45.126Z,24.30
2022-10-11T23:48:11.413Z,21.80
2022-10-11T23:50:37.707Z,21.70
2022-10-11T23:53:03.960Z,24.52
2022-10-11T23:55:30.306Z,20.63
2022-10-11T23:57:56.550Z,22.95
